Time;durP1;ratioP1;P1;durP2;ratioP2;P2;SDS_P1;SDS_P2;PMS_P1;PMS_P2;Temp;Humidity;BMP_temperature;BMP_pressure;BME280_temperature;BME280_humidity;BME280_pressure;Samples;Min_cycle;Max_cycle;Signal;HPM_P1;HPM_P2
2023/02/25 00:00:09;;;;;;;1.50;0.47;;;;;;;;;;5002159;28;20449;-81
2023/02/25 00:02:36;;;;;;;3.30;0.30;;;;;;;;;;5001855;28;20482;-82
2023/02/25 00:05:06;;;;;;;3.10;0.50;;;;;;;;;;5001834;28;20532;-80
2023/02/25 00:07:34;;;;;;;1.00;0.30;;;;;;;;;;5001962;28;20496;-79
2023/02/25 00:10:00;;;;;;;2.00;0.30;;;;;;;;;;5001902;28;22300;-81
2023/02/25 00:12:27;;;;;;;3.20;0.50;;;;;;;;;;5002030;28;20465;-81
2023/02/25 00:14:53;;;;;;;1.83;0.50;;;;;;;;;;5001714;28;20474;-80
2023/02/25 00:17:19;;;;;;;0.97;0.20;;;;;;;;;;5001513;28;20922;-80
2023/02/25 00:19:45;;;;;;;0.70;0.20;;;;;;;;;;5001308;28;20447;-80
2023/02/25 00:22:11;;;;;;;5.97;0.70;;;;;;;;;;5001188;28;20820;-81
2023/02/25 00:24:37;;;;;;;1.07;0.20;;;;;;;;;;5002087;28;20999;-80
2023/02/25 00:27:03;;;;;;;2.00;0.73;;;;;;;;;;5003194;28;20589;-79
2023/02/25 00:29:29;;;;;;;2.90;0.40;;;;;;;;;;5003830;28;20488;-80
2023/02/25 00:31:55;;;;;;;2.07;0.40;;;;;;;;;;5004194;28;20449;-80
2023/02/25 00:34:21;;;;;;;4.93;0.43;;;;;;;;;;5004463;28;20497;-80
2023/02/25 00:36:48;;;;;;;0.40;0.20;;;;;;;;;;5001387;28;20572;-80
2023/02/25 00:39:14;;;;;;;1.83;0.30;;;;;;;;;;5004420;28;20539;-80
2023/02/25 00:41:40;;;;;;;3.37;0.60;;;;;;;;;;5002510;28;20558;-80
2023/02/25 00:44:06;;;;;;;2.53;0.33;;;;;;;;;;5004328;28;20871;-81
2023/02/25 00:46:32;;;;;;;2.07;0.60;;;;;;;;;;5005001;28;20437;-80
2023/02/25 00:48:59;;;;;;;1.67;0.30;;;;;;;;;;5002323;28;20438;-81
2023/02/25 00:51:26;;;;;;;0.83;0.40;;;;;;;;;;5002275;28;20925;-79
2023/02/25 00:53:55;;;;;;;0.40;0.20;;;;;;;;;;5002490;28;20421;-79
2023/02/25 00:56:21;;;;;;;1.73;0.60;;;;;;;;;;5001479;28;21079;-82
2023/02/25 00:58:48;;;;;;;0.60;0.20;;;;;;;;;;5000276;28;20794;-81
2023/02/25 01:01:24;;;;;;;0.90;0.30;;;;;;;;;;5000167;28;20506;-81
2023/02/25 01:03:52;;;;;;;1.13;0.20;;;;;;;;;;5000462;28;20473;-81
2023/02/25 01:06:17;;;;;;;1.13;0.20;;;;;;;;;;5000137;28;20433;-79
2023/02/25 01:08:44;;;;;;;1.50;1.17;;;;;;;;;;5001018;28;21082;-80
2023/02/25 01:11:14;;;;;;;2.13;0.33;;;;;;;;;;4998709;28;20521;-82
2023/02/25 01:13:40;;;;;;;7.13;0.50;;;;;;;;;;5013291;28;20461;-82
2023/02/25 01:16:10;;;;;;;0.60;0.20;;;;;;;;;;5013223;28;20445;-81
2023/02/25 01:18:36;;;;;;;0.70;0.20;;;;;;;;;;5011005;28;20437;-85
2023/02/25 01:21:02;;;;;;;0.60;0.50;;;;;;;;;;5013219;28;20461;-81
2023/02/25 01:23:29;;;;;;;1.47;0.40;;;;;;;;;;5012362;28;20483;-80
2023/02/25 01:25:55;;;;;;;0.73;0.20;;;;;;;;;;5012090;28;20460;-81
2023/02/25 01:28:20;;;;;;;1.13;0.23;;;;;;;;;;5012960;28;20418;-80
2023/02/25 01:30:46;;;;;;;1.60;0.20;;;;;;;;;;5012940;28;20481;-81
2023/02/25 01:33:12;;;;;;;0.70;0.20;;;;;;;;;;5012912;28;20457;-81
2023/02/25 01:35:38;;;;;;;2.73;0.20;;;;;;;;;;5012865;28;20414;-81
2023/02/25 01:38:04;;;;;;;0.30;0.20;;;;;;;;;;5012717;28;20417;-82
2023/02/25 01:40:30;;;;;;;0.60;0.30;;;;;;;;;;5012413;28;20769;-81
2023/02/25 01:42:56;;;;;;;0.80;0.30;;;;;;;;;;5012759;28;20476;-80
2023/02/25 01:45:24;;;;;;;1.83;0.20;;;;;;;;;;5012738;28;20410;-82
2023/02/25 01:47:58;;;;;;;0.50;0.20;;;;;;;;;;5015358;28;20418;-82
2023/02/25 01:50:26;;;;;;;1.40;0.37;;;;;;;;;;5016641;28;20421;-81
2023/02/25 01:52:53;;;;;;;4.33;0.50;;;;;;;;;;5016672;28;20508;-82
2023/02/25 01:55:19;;;;;;;0.70;0.47;;;;;;;;;;5014957;28;20465;-80
2023/02/25 01:57:45;;;;;;;1.03;0.20;;;;;;;;;;5016478;28;20414;-81
2023/02/25 02:00:14;;;;;;;3.40;0.30;;;;;;;;;;5016458;28;21040;-82
2023/02/25 02:02:41;;;;;;;2.10;0.50;;;;;;;;;;5015984;28;20568;-82
2023/02/25 02:05:07;;;;;;;1.03;0.33;;;;;;;;;;5016495;28;21056;-80
2023/02/25 02:07:33;;;;;;;2.10;0.40;;;;;;;;;;5016381;28;20475;-81
2023/02/25 02:10:01;;;;;;;0.47;0.20;;;;;;;;;;5015882;28;20803;-82
2023/02/25 02:12:28;;;;;;;2.53;0.30;;;;;;;;;;5016373;28;20410;-81
2023/02/25 02:14:59;;;;;;;1.40;0.30;;;;;;;;;;5014953;28;20780;-81
2023/02/25 02:17:34;;;;;;;0.63;0.20;;;;;;;;;;5016206;28;20430;-81
2023/02/25 02:20:21;;;;;;;0.83;0.20;;;;;;;;;;5011522;28;20450;-80
2023/02/25 02:23:03;;;;;;;1.90;0.43;;;;;;;;;;4996479;28;20548;-80
2023/02/25 02:25:50;;;;;;;0.50;0.40;;;;;;;;;;4998199;28;20465;-81
2023/02/25 02:28:35;;;;;;;1.57;0.50;;;;;;;;;;5015999;28;20409;-81
2023/02/25 02:31:12;;;;;;;1.20;0.30;;;;;;;;;;5015996;28;20456;-81
2023/02/25 02:33:54;;;;;;;1.00;0.30;;;;;;;;;;5014583;28;20426;-82
2023/02/25 02:36:38;;;;;;;0.60;0.20;;;;;;;;;;5015900;28;20441;-82
2023/02/25 02:39:18;;;;;;;0.70;0.23;;;;;;;;;;5015512;28;20420;-81
2023/02/25 02:41:47;;;;;;;0.37;0.20;;;;;;;;;;5031187;28;20482;-81
2023/02/25 02:44:20;;;;;;;0.53;0.40;;;;;;;;;;5035478;28;20409;-82
2023/02/25 02:46:49;;;;;;;2.03;0.27;;;;;;;;;;5035477;28;20845;-82
2023/02/25 02:49:17;;;;;;;0.50;0.27;;;;;;;;;;5035278;28;20416;-81
2023/02/25 02:51:47;;;;;;;1.53;0.40;;;;;;;;;;5035334;28;20463;-82
2023/02/25 02:54:14;;;;;;;0.40;0.20;;;;;;;;;;5034954;28;20421;-80
2023/02/25 02:56:42;;;;;;;0.83;0.30;;;;;;;;;;5035123;28;20409;-82
2023/02/25 02:59:11;;;;;;;0.50;0.27;;;;;;;;;;5034398;28;20422;-83
2023/02/25 03:01:44;;;;;;;0.40;0.20;;;;;;;;;;5035068;28;20470;-84
2023/02/25 03:04:13;;;;;;;1.43;0.20;;;;;;;;;;5035252;28;20510;-82
2023/02/25 03:06:41;;;;;;;1.53;0.20;;;;;;;;;;5035039;28;20466;-81
2023/02/25 03:09:10;;;;;;;0.90;0.30;;;;;;;;;;5034731;28;20782;-83
2023/02/25 03:11:36;;;;;;;1.03;0.20;;;;;;;;;;5034877;28;20436;-82
2023/02/25 03:14:02;;;;;;;1.33;0.20;;;;;;;;;;5034997;28;20448;-83
2023/02/25 03:16:36;;;;;;;2.03;0.33;;;;;;;;;;5034923;28;20397;-83
2023/02/25 03:19:07;;;;;;;3.77;0.50;;;;;;;;;;5034817;28;20451;-83
2023/02/25 03:21:38;;;;;;;3.83;0.40;;;;;;;;;;5034704;28;20992;-81
2023/02/25 03:24:08;;;;;;;0.53;0.30;;;;;;;;;;5034464;28;20433;-83
2023/02/25 03:26:35;;;;;;;2.00;0.53;;;;;;;;;;5033301;28;20469;-82
2023/02/25 03:29:04;;;;;;;0.50;0.30;;;;;;;;;;5034804;28;20473;-83
2023/02/25 03:31:33;;;;;;;0.70;0.40;;;;;;;;;;5034564;28;20419;-82
2023/02/25 03:34:02;;;;;;;0.97;0.40;;;;;;;;;;5034580;28;20467;-81
2023/02/25 03:36:30;;;;;;;1.00;0.50;;;;;;;;;;5034542;28;20763;-81
2023/02/25 03:38:58;;;;;;;1.43;0.40;;;;;;;;;;5034024;28;20409;-82
2023/02/25 03:41:26;;;;;;;3.33;1.53;;;;;;;;;;5034253;28;20460;-80
2023/02/25 03:43:54;;;;;;;1.63;0.50;;;;;;;;;;5034358;28;20426;-80
2023/02/25 03:46:21;;;;;;;0.97;0.40;;;;;;;;;;5034358;28;20412;-80
2023/02/25 03:48:47;;;;;;;1.23;0.57;;;;;;;;;;5034216;28;20428;-80
2023/02/25 03:51:14;;;;;;;0.63;0.40;;;;;;;;;;5034177;28;20504;-80
2023/02/25 03:53:40;;;;;;;1.13;0.33;;;;;;;;;;5033917;28;20464;-80
2023/02/25 03:56:08;;;;;;;1.83;0.43;;;;;;;;;;5034207;28;20774;-80
2023/02/25 03:58:35;;;;;;;1.43;0.40;;;;;;;;;;5034126;28;20410;-78
2023/02/25 04:01:03;;;;;;;2.30;0.53;;;;;;;;;;5033935;28;20409;-82
2023/02/25 04:03:29;;;;;;;1.07;0.37;;;;;;;;;;5033868;28;20767;-81
2023/02/25 04:05:55;;;;;;;3.23;0.30;;;;;;;;;;5032731;28;20424;-78
2023/02/25 04:08:21;;;;;;;2.03;0.53;;;;;;;;;;5033535;28;20414;-81
2023/02/25 04:10:47;;;;;;;2.07;0.80;;;;;;;;;;5032910;28;20411;-82
2023/02/25 04:13:14;;;;;;;2.67;0.60;;;;;;;;;;5033729;28;20803;-78
2023/02/25 04:15:40;;;;;;;0.80;0.30;;;;;;;;;;5033721;28;20413;-79
2023/02/25 04:18:06;;;;;;;0.60;0.20;;;;;;;;;;5033661;28;20469;-81
2023/02/25 04:20:32;;;;;;;0.63;0.37;;;;;;;;;;5033719;28;20415;-81
2023/02/25 04:22:59;;;;;;;1.17;0.30;;;;;;;;;;5031981;28;20535;-81
2023/02/25 04:25:25;;;;;;;1.03;0.30;;;;;;;;;;5033347;28;20906;-79
2023/02/25 04:27:51;;;;;;;2.50;0.93;;;;;;;;;;5033525;28;20413;-80
2023/02/25 04:30:17;;;;;;;0.43;0.20;;;;;;;;;;5015835;28;20425;-80
2023/02/25 04:32:43;;;;;;;2.00;0.33;;;;;;;;;;5032111;28;20936;-79
2023/02/25 04:35:12;;;;;;;2.00;0.30;;;;;;;;;;5032234;28;20451;-81
2023/02/25 04:37:42;;;;;;;2.10;0.67;;;;;;;;;;5033376;28;20453;-79
2023/02/25 04:40:12;;;;;;;0.73;0.30;;;;;;;;;;5031655;28;20913;-81
2023/02/25 04:42:38;;;;;;;0.60;0.30;;;;;;;;;;5032011;28;20531;-80
2023/02/25 04:45:05;;;;;;;1.53;0.60;;;;;;;;;;5033193;28;20955;-80
2023/02/25 04:47:31;;;;;;;0.80;0.20;;;;;;;;;;5033200;28;20418;-80
2023/02/25 04:49:57;;;;;;;0.63;0.30;;;;;;;;;;5033249;28;20417;-80
2023/02/25 04:52:23;;;;;;;2.07;0.30;;;;;;;;;;5033081;28;20890;-80
2023/02/25 04:54:49;;;;;;;1.07;0.43;;;;;;;;;;5032639;28;20440;-80
2023/02/25 04:57:15;;;;;;;9.90;0.70;;;;;;;;;;5033018;28;20917;-80
2023/02/25 04:59:41;;;;;;;3.87;0.20;;;;;;;;;;5033136;28;20419;-80
2023/02/25 05:02:08;;;;;;;3.27;0.50;;;;;;;;;;5031723;28;20558;-80
2023/02/25 05:04:34;;;;;;;1.00;0.60;;;;;;;;;;5032993;28;20506;-79
2023/02/25 05:07:00;;;;;;;1.37;0.67;;;;;;;;;;5031141;28;20542;-80
2023/02/25 05:09:26;;;;;;;1.30;0.30;;;;;;;;;;5032501;28;20421;-80
2023/02/25 05:11:52;;;;;;;0.93;0.30;;;;;;;;;;5032867;28;20410;-81
2023/02/25 05:14:18;;;;;;;1.23;0.33;;;;;;;;;;5032806;28;20436;-79
2023/02/25 05:16:44;;;;;;;0.60;0.30;;;;;;;;;;5032757;28;20508;-80
2023/02/25 05:19:18;;;;;;;0.77;0.40;;;;;;;;;;5032864;28;20417;-82
2023/02/25 05:21:44;;;;;;;1.60;0.20;;;;;;;;;;5032271;28;20502;-83
2023/02/25 05:24:11;;;;;;;3.23;0.20;;;;;;;;;;5032328;28;20413;-82
2023/02/25 05:26:37;;;;;;;2.07;0.37;;;;;;;;;;5032550;28;20595;-82
2023/02/25 05:29:03;;;;;;;1.53;0.20;;;;;;;;;;5022847;28;20449;-81
2023/02/25 05:31:28;;;;;;;0.93;0.30;;;;;;;;;;5012866;28;20424;-83
2023/02/25 05:33:54;;;;;;;0.40;0.30;;;;;;;;;;5012872;28;20413;-81
2023/02/25 05:36:20;;;;;;;1.63;0.20;;;;;;;;;;5012679;28;20539;-81
2023/02/25 05:38:46;;;;;;;0.50;0.20;;;;;;;;;;5011251;28;20533;-82
2023/02/25 05:41:13;;;;;;;1.17;0.30;;;;;;;;;;5012801;28;20452;-80
2023/02/25 05:43:39;;;;;;;2.40;0.20;;;;;;;;;;5012829;28;20518;-82
2023/02/25 05:46:10;;;;;;;0.63;0.20;;;;;;;;;;5012830;28;20815;-81
2023/02/25 05:48:37;;;;;;;2.37;0.50;;;;;;;;;;5012722;28;20502;-82
2023/02/25 05:51:04;;;;;;;2.10;0.40;;;;;;;;;;5012872;28;20405;-81
2023/02/25 05:53:31;;;;;;;1.07;0.20;;;;;;;;;;5012501;28;20450;-82
2023/02/25 05:55:57;;;;;;;0.57;0.20;;;;;;;;;;5012875;28;20405;-79
2023/02/25 05:58:23;;;;;;;3.30;0.30;;;;;;;;;;5012746;28;20422;-83
2023/02/25 06:00:49;;;;;;;1.07;0.40;;;;;;;;;;5012820;28;20493;-82
2023/02/25 06:03:14;;;;;;;1.70;0.40;;;;;;;;;;5012580;28;20988;-82
2023/02/25 06:05:41;;;;;;;1.03;0.20;;;;;;;;;;5012713;28;20913;-82
2023/02/25 06:08:10;;;;;;;1.30;0.20;;;;;;;;;;5012300;28;20512;-82
2023/02/25 06:10:37;;;;;;;3.13;0.60;;;;;;;;;;5012711;28;20402;-80
2023/02/25 06:13:06;;;;;;;1.30;0.20;;;;;;;;;;5011428;28;20424;-82
2023/02/25 06:15:32;;;;;;;1.13;0.30;;;;;;;;;;5012556;28;20803;-82
2023/02/25 06:17:58;;;;;;;0.83;0.30;;;;;;;;;;5012537;28;20410;-81
2023/02/25 06:20:24;;;;;;;0.47;0.40;;;;;;;;;;5012353;28;20423;-80
2023/02/25 06:22:50;;;;;;;0.50;0.30;;;;;;;;;;5012062;28;20552;-80
2023/02/25 06:25:16;;;;;;;2.30;0.50;;;;;;;;;;5012257;28;20815;-83
2023/02/25 06:27:42;;;;;;;1.13;0.20;;;;;;;;;;5012394;28;20513;-82
2023/02/25 06:30:08;;;;;;;1.73;0.20;;;;;;;;;;5010970;28;20424;-81
2023/02/25 06:32:34;;;;;;;2.57;0.30;;;;;;;;;;5012263;28;20424;-83
2023/02/25 06:35:00;;;;;;;1.37;0.20;;;;;;;;;;5014970;28;20739;-84
2023/02/25 06:37:26;;;;;;;0.70;0.30;;;;;;;;;;5015891;28;20902;-82
2023/02/25 06:39:52;;;;;;;1.47;0.20;;;;;;;;;;5015069;28;20406;-80
2023/02/25 06:42:18;;;;;;;0.50;0.40;;;;;;;;;;5015601;28;20528;-82
2023/02/25 06:44:44;;;;;;;1.80;0.20;;;;;;;;;;5015799;28;20741;-81
2023/02/25 06:47:10;;;;;;;0.53;0.20;;;;;;;;;;5015741;28;20438;-80
2023/02/25 06:49:36;;;;;;;1.30;0.20;;;;;;;;;;5015448;28;20426;-82
2023/02/25 06:52:02;;;;;;;0.97;0.27;;;;;;;;;;5015608;28;20925;-81
2023/02/25 06:54:28;;;;;;;1.90;0.30;;;;;;;;;;5013876;28;20418;-79
2023/02/25 06:56:54;;;;;;;5.70;0.30;;;;;;;;;;5015568;28;20433;-80
2023/02/25 06:59:23;;;;;;;1.33;0.40;;;;;;;;;;5015357;28;20414;-81
2023/02/25 07:01:49;;;;;;;0.50;0.30;;;;;;;;;;5015386;28;20478;-81
2023/02/25 07:04:16;;;;;;;0.73;0.20;;;;;;;;;;5015266;28;20913;-80
2023/02/25 07:06:42;;;;;;;3.10;0.43;;;;;;;;;;5015330;28;20402;-81
2023/02/25 07:09:08;;;;;;;0.97;0.30;;;;;;;;;;5014952;28;20737;-80
2023/02/25 07:11:35;;;;;;;0.50;0.30;;;;;;;;;;5015218;28;20508;-81
2023/02/25 07:14:02;;;;;;;1.10;0.30;;;;;;;;;;5013978;28;20442;-81
2023/02/25 07:16:28;;;;;;;1.13;0.30;;;;;;;;;;5015164;28;20406;-81
2023/02/25 07:18:54;;;;;;;1.07;0.20;;;;;;;;;;5015111;28;20417;-79
2023/02/25 07:21:21;;;;;;;1.07;0.20;;;;;;;;;;5014969;28;20470;-81
2023/02/25 07:23:50;;;;;;;1.00;0.20;;;;;;;;;;5013407;28;20475;-81
2023/02/25 07:26:19;;;;;;;2.00;0.20;;;;;;;;;;5008572;28;20976;-82
2023/02/25 07:28:47;;;;;;;0.53;0.30;;;;;;;;;;5011121;28;20427;-80
2023/02/25 07:31:17;;;;;;;0.60;0.20;;;;;;;;;;5002488;28;20423;-80
2023/02/25 07:33:43;;;;;;;1.23;0.20;;;;;;;;;;5004177;28;20476;-79
2023/02/25 07:36:09;;;;;;;0.30;0.20;;;;;;;;;;5005364;28;20422;-81
2023/02/25 07:38:42;;;;;;;0.40;0.27;;;;;;;;;;5002122;28;20420;-81
2023/02/25 07:41:09;;;;;;;0.57;0.30;;;;;;;;;;5006878;28;20445;-80
2023/02/25 07:43:35;;;;;;;0.30;0.20;;;;;;;;;;5004855;28;20843;-81
2023/02/25 07:46:01;;;;;;;0.80;0.20;;;;;;;;;;5002796;28;20481;-82
2023/02/25 07:48:27;;;;;;;0.57;0.20;;;;;;;;;;5005666;28;20427;-83
2023/02/25 07:50:54;;;;;;;1.93;0.30;;;;;;;;;;5004451;28;20427;-82
2023/02/25 07:53:21;;;;;;;1.23;0.23;;;;;;;;;;5004005;28;20412;-82
2023/02/25 07:55:47;;;;;;;2.30;0.20;;;;;;;;;;5004897;28;20422;-83
2023/02/25 07:58:13;;;;;;;0.70;0.30;;;;;;;;;;5002869;28;20748;-81
2023/02/25 08:00:40;;;;;;;3.33;0.30;;;;;;;;;;5004183;28;20476;-81
2023/02/25 08:03:06;;;;;;;0.40;0.20;;;;;;;;;;5003092;28;21065;-81
2023/02/25 08:05:35;;;;;;;1.40;0.33;;;;;;;;;;5002686;28;20522;-81
2023/02/25 08:08:01;;;;;;;2.47;0.20;;;;;;;;;;5003664;28;20907;-82
2023/02/25 08:10:27;;;;;;;1.47;0.20;;;;;;;;;;4964079;28;20438;-83
2023/02/25 08:12:54;;;;;;;3.10;0.40;;;;;;;;;;5004489;28;20489;-83
2023/02/25 08:15:20;;;;;;;3.13;0.50;;;;;;;;;;5004725;28;20422;-82
2023/02/25 08:17:50;;;;;;;0.50;0.20;;;;;;;;;;5012137;28;20795;-84
2023/02/25 08:20:16;;;;;;;0.53;0.20;;;;;;;;;;5013628;28;20804;-82
2023/02/25 08:22:42;;;;;;;1.00;0.20;;;;;;;;;;5013369;28;20545;-81
2023/02/25 08:25:08;;;;;;;0.60;0.20;;;;;;;;;;5013290;28;20433;-81
2023/02/25 08:27:35;;;;;;;3.50;0.40;;;;;;;;;;5013923;28;20418;-81
2023/02/25 08:30:01;;;;;;;1.80;0.30;;;;;;;;;;5012424;28;20422;-82
2023/02/25 08:32:27;;;;;;;0.47;0.20;;;;;;;;;;5013615;28;20513;-82
2023/02/25 08:34:53;;;;;;;0.60;0.30;;;;;;;;;;5011943;28;20425;-82
2023/02/25 08:37:20;;;;;;;0.70;0.37;;;;;;;;;;5001202;28;20429;-80
2023/02/25 08:39:46;;;;;;;2.10;0.50;;;;;;;;;;4996596;28;20839;-81
2023/02/25 08:42:14;;;;;;;0.80;0.30;;;;;;;;;;4993775;28;20559;-81
2023/02/25 08:44:40;;;;;;;0.70;0.20;;;;;;;;;;4993970;28;20478;-80
2023/02/25 08:47:06;;;;;;;2.50;0.40;;;;;;;;;;4993890;28;20455;-82
2023/02/25 08:49:32;;;;;;;1.37;0.20;;;;;;;;;;5004106;28;20440;-82
2023/02/25 08:51:58;;;;;;;0.77;0.20;;;;;;;;;;5012703;28;20410;-83
2023/02/25 08:54:24;;;;;;;0.40;0.30;;;;;;;;;;5011991;28;20857;-81
2023/02/25 08:56:50;;;;;;;0.80;0.20;;;;;;;;;;5012305;28;20426;-84
2023/02/25 08:59:16;;;;;;;0.50;0.20;;;;;;;;;;5005719;28;20448;-83
2023/02/25 09:01:53;;;;;;;6.73;0.60;;;;;;;;;;5006801;28;20573;-85
2023/02/25 09:04:21;;;;;;;1.37;0.30;;;;;;;;;;5006591;28;20445;-84
2023/02/25 09:06:47;;;;;;;3.50;0.40;;;;;;;;;;5007610;28;20896;-82
2023/02/25 09:09:14;;;;;;;0.43;0.27;;;;;;;;;;5004294;28;20498;-79
2023/02/25 09:11:40;;;;;;;0.87;0.27;;;;;;;;;;4975328;28;21149;-82
2023/02/25 09:14:06;;;;;;;3.37;0.43;;;;;;;;;;4995198;28;20440;-81
2023/02/25 09:16:32;;;;;;;5.20;0.37;;;;;;;;;;5011618;28;20784;-81
2023/02/25 09:19:01;;;;;;;1.17;0.20;;;;;;;;;;5003192;28;20425;-79
2023/02/25 09:21:27;;;;;;;2.33;0.43;;;;;;;;;;5004561;28;20461;-81
2023/02/25 09:23:53;;;;;;;3.10;0.50;;;;;;;;;;5007145;28;20443;-84
2023/02/25 09:26:20;;;;;;;1.07;0.40;;;;;;;;;;5008324;28;20961;-80
2023/02/25 09:28:46;;;;;;;1.00;0.20;;;;;;;;;;5011362;28;20433;-79
2023/02/25 09:31:13;;;;;;;0.80;0.20;;;;;;;;;;5012825;28;20402;-79
2023/02/25 09:33:41;;;;;;;5.00;0.67;;;;;;;;;;5012699;28;20425;-81
2023/02/25 09:36:12;;;;;;;0.40;0.20;;;;;;;;;;5012887;28;20435;-79
2023/02/25 09:38:38;;;;;;;0.70;0.40;;;;;;;;;;5012398;28;20416;-83
2023/02/25 09:41:16;;;;;;;1.83;0.50;;;;;;;;;;5012137;28;20793;-80
2023/02/25 09:43:42;;;;;;;4.07;0.50;;;;;;;;;;5006940;28;20445;-80
2023/02/25 09:46:17;;;;;;;2.40;0.50;;;;;;;;;;5012758;28;20761;-82
2023/02/25 09:48:49;;;;;;;4.07;0.40;;;;;;;;;;5012161;28;20440;-83
2023/02/25 09:51:21;;;;;;;3.50;0.37;;;;;;;;;;5011692;28;20964;-79
2023/02/25 09:53:52;;;;;;;1.53;0.27;;;;;;;;;;5012466;28;20457;-80
2023/02/25 09:56:19;;;;;;;1.10;0.30;;;;;;;;;;5012922;28;20410;-82
2023/02/25 09:58:55;;;;;;;3.13;0.50;;;;;;;;;;5012891;28;20413;-82
2023/02/25 10:01:28;;;;;;;1.53;0.40;;;;;;;;;;5009081;28;20465;-83
2023/02/25 10:04:13;;;;;;;5.83;0.57;;;;;;;;;;5009359;28;20477;-81
2023/02/25 10:06:42;;;;;;;4.00;0.63;;;;;;;;;;5008058;28;20441;-81
2023/02/25 10:09:26;;;;;;;3.07;0.43;;;;;;;;;;5009422;28;20442;-82
2023/02/25 10:11:59;;;;;;;0.90;0.20;;;;;;;;;;5023467;28;20413;-83
2023/02/25 10:14:28;;;;;;;2.83;0.63;;;;;;;;;;4969510;28;20809;-80
2023/02/25 10:17:09;;;;;;;0.50;0.20;;;;;;;;;;5024792;28;20427;-79
2023/02/25 10:19:57;;;;;;;1.17;0.27;;;;;;;;;;5016010;28;20826;-81
2023/02/25 10:22:33;;;;;;;4.20;0.50;;;;;;;;;;5014196;28;20478;-82
2023/02/25 10:25:16;;;;;;;0.80;0.20;;;;;;;;;;5015990;28;20502;-82
2023/02/25 10:27:48;;;;;;;2.43;0.20;;;;;;;;;;5015991;28;20485;-79
2023/02/25 10:30:16;;;;;;;2.30;0.57;;;;;;;;;;5015812;28;20410;-80
2023/02/25 10:32:42;;;;;;;0.90;0.23;;;;;;;;;;5015845;28;20447;-79
2023/02/25 10:35:15;;;;;;;2.40;0.20;;;;;;;;;;5015840;28;20407;-82
2023/02/25 10:37:42;;;;;;;1.37;0.20;;;;;;;;;;5014866;28;20517;-82
2023/02/25 10:40:13;;;;;;;5.60;0.50;;;;;;;;;;5014394;28;20424;-82
2023/02/25 10:42:39;;;;;;;1.90;0.20;;;;;;;;;;5014415;28;20482;-81
2023/02/25 10:45:09;;;;;;;4.20;0.30;;;;;;;;;;5014498;28;20415;-82
2023/02/25 10:47:37;;;;;;;0.60;0.20;;;;;;;;;;5015645;28;20420;-82
2023/02/25 10:50:11;;;;;;;2.27;0.20;;;;;;;;;;5015514;28;20423;-80
2023/02/25 10:52:53;;;;;;;2.73;0.20;;;;;;;;;;5015261;28;20888;-81
2023/02/25 10:55:37;;;;;;;3.90;0.20;;;;;;;;;;5015595;28;20448;-81
2023/02/25 10:58:03;;;;;;;1.37;0.30;;;;;;;;;;5008078;28;20453;-81
2023/02/25 11:00:30;;;;;;;1.70;0.73;;;;;;;;;;5013780;28;20872;-79
2023/02/25 11:02:57;;;;;;;5.47;0.40;;;;;;;;;;5014660;28;20483;-81
2023/02/25 11:05:49;;;;;;;2.43;0.20;;;;;;;;;;5014903;28;20462;-78
2023/02/25 11:08:32;;;;;;;0.80;0.30;;;;;;;;;;5012996;28;20476;-82
2023/02/25 11:11:02;;;;;;;4.23;0.53;;;;;;;;;;5015209;28;20401;-78
2023/02/25 11:13:30;;;;;;;0.97;0.20;;;;;;;;;;5015095;28;20465;-79
2023/02/25 11:15:58;;;;;;;1.80;0.20;;;;;;;;;;4974082;28;21003;-80
2023/02/25 11:18:28;;;;;;;4.60;0.47;;;;;;;;;;5014984;28;20411;-82
2023/02/25 11:20:55;;;;;;;0.47;0.20;;;;;;;;;;5014329;28;20410;-82
2023/02/25 11:23:24;;;;;;;1.20;0.43;;;;;;;;;;5014682;28;20979;-80
2023/02/25 11:25:52;;;;;;;7.17;0.20;;;;;;;;;;5006812;28;20469;-82
2023/02/25 11:28:23;;;;;;;3.47;0.30;;;;;;;;;;4996876;28;20419;-81
2023/02/25 11:30:49;;;;;;;0.40;0.20;;;;;;;;;;4995310;28;20992;-81
2023/02/25 11:33:22;;;;;;;1.23;0.20;;;;;;;;;;4995247;28;20490;-81
2023/02/25 11:35:54;;;;;;;2.03;0.37;;;;;;;;;;5010215;28;20422;-79
2023/02/25 11:38:25;;;;;;;3.90;0.20;;;;;;;;;;4994857;28;20414;-83
2023/02/25 11:40:51;;;;;;;2.23;0.70;;;;;;;;;;4995078;28;20815;-79
2023/02/25 11:43:17;;;;;;;2.73;0.47;;;;;;;;;;4999774;28;20478;-81
2023/02/25 11:45:48;;;;;;;1.07;0.40;;;;;;;;;;5014488;28;20438;-80
2023/02/25 11:48:19;;;;;;;1.80;0.40;;;;;;;;;;5013335;28;20433;-82
2023/02/25 11:50:51;;;;;;;1.03;0.30;;;;;;;;;;5008470;28;20468;-82
2023/02/25 11:53:27;;;;;;;6.80;0.57;;;;;;;;;;5003063;28;20450;-84
2023/02/25 11:56:00;;;;;;;0.70;0.10;;;;;;;;;;5003093;28;20423;-83
2023/02/25 11:58:50;;;;;;;1.30;0.30;;;;;;;;;;5001182;28;20426;-83
2023/02/25 12:01:15;;;;;;;0.97;0.30;;;;;;;;;;4994728;28;20420;-79
2023/02/25 12:03:49;;;;;;;1.60;0.20;;;;;;;;;;4994767;28;20488;-81
2023/02/25 12:06:22;;;;;;;3.13;0.30;;;;;;;;;;4994671;28;20182;-79
2023/02/25 12:08:55;;;;;;;0.83;0.30;;;;;;;;;;4994227;28;20417;-80
2023/02/25 12:11:24;;;;;;;3.60;0.27;;;;;;;;;;4993266;28;20989;-79
2023/02/25 12:14:01;;;;;;;0.67;0.20;;;;;;;;;;4993125;28;20928;-80
2023/02/25 12:16:46;;;;;;;2.87;0.27;;;;;;;;;;4994442;28;20428;-83
2023/02/25 12:19:21;;;;;;;1.53;0.30;;;;;;;;;;4994555;28;20555;-83
2023/02/25 12:21:53;;;;;;;5.30;0.70;;;;;;;;;;5013492;28;20629;-81
2023/02/25 12:24:28;;;;;;;1.20;0.33;;;;;;;;;;5013827;28;20774;-82
2023/02/25 12:27:00;;;;;;;4.63;0.30;;;;;;;;;;5014053;28;20492;-82
2023/02/25 12:29:44;;;;;;;3.00;0.20;;;;;;;;;;5013841;28;20465;-84
2023/02/25 12:32:16;;;;;;;3.60;0.57;;;;;;;;;;4993610;28;20425;-80
2023/02/25 12:35:00;;;;;;;6.27;0.77;;;;;;;;;;4994254;28;20905;-82
2023/02/25 12:37:29;;;;;;;2.77;0.37;;;;;;;;;;4963075;28;20445;-83
2023/02/25 12:40:03;;;;;;;1.90;0.40;;;;;;;;;;5013060;28;20920;-81
2023/02/25 12:42:37;;;;;;;2.97;0.67;;;;;;;;;;5013725;28;20528;-80
2023/02/25 12:45:22;;;;;;;2.07;0.57;;;;;;;;;;5012392;28;20961;-82
2023/02/25 12:48:09;;;;;;;2.10;0.47;;;;;;;;;;5011989;28;20479;-83
2023/02/25 12:50:44;;;;;;;0.83;0.23;;;;;;;;;;5003963;28;20431;-79
2023/02/25 12:53:10;;;;;;;0.70;0.20;;;;;;;;;;4993392;28;20457;-80
2023/02/25 12:55:38;;;;;;;1.60;0.20;;;;;;;;;;4993876;28;20913;-79
2023/02/25 12:58:23;;;;;;;1.57;0.20;;;;;;;;;;4993903;28;20569;-81
2023/02/25 13:01:01;;;;;;;1.70;0.47;;;;;;;;;;4993725;28;20994;-80
2023/02/25 13:03:27;;;;;;;1.10;0.30;;;;;;;;;;5001375;28;20475;-81
2023/02/25 13:05:59;;;;;;;1.23;0.20;;;;;;;;;;5013241;28;20422;-83
2023/02/25 13:08:41;;;;;;;0.93;0.23;;;;;;;;;;5011610;28;20438;-81
2023/02/25 13:11:15;;;;;;;0.87;0.30;;;;;;;;;;5012011;28;20945;-83
2023/02/25 13:13:49;;;;;;;2.03;0.60;;;;;;;;;;5011641;28;20487;-81
2023/02/25 13:16:21;;;;;;;7.30;0.50;;;;;;;;;;5005058;28;20845;-81
2023/02/25 13:19:01;;;;;;;2.67;1.00;;;;;;;;;;4997948;28;20423;-81
2023/02/25 13:21:45;;;;;;;2.57;0.30;;;;;;;;;;4992779;28;20429;-80
2023/02/25 13:24:32;;;;;;;3.03;0.73;;;;;;;;;;5008463;28;20432;-80
2023/02/25 13:27:16;;;;;;;4.60;0.27;;;;;;;;;;5012675;28;20475;-80
2023/02/25 13:29:51;;;;;;;1.73;0.30;;;;;;;;;;5008404;28;20430;-84
2023/02/25 13:32:26;;;;;;;2.53;0.50;;;;;;;;;;5010911;28;20436;-81
2023/02/25 13:35:00;;;;;;;2.37;0.33;;;;;;;;;;5012956;28;20432;-81
2023/02/25 13:37:44;;;;;;;3.33;0.50;;;;;;;;;;4972206;28;21021;-81
2023/02/25 13:40:29;;;;;;;1.97;0.83;;;;;;;;;;5013103;28;20823;-84
2023/02/25 13:43:13;;;;;;;2.77;0.20;;;;;;;;;;5014247;28;20566;-84
2023/02/25 13:45:49;;;;;;;1.43;0.50;;;;;;;;;;5014129;28;20423;-85
2023/02/25 13:48:26;;;;;;;2.97;0.40;;;;;;;;;;5015727;28;20429;-85
2023/02/25 13:51:10;;;;;;;2.40;0.30;;;;;;;;;;5016279;28;20417;-85
2023/02/25 13:53:56;;;;;;;3.60;0.30;;;;;;;;;;5015088;28;20424;-82
2023/02/25 13:56:24;;;;;;;1.87;0.20;;;;;;;;;;5016587;28;20844;-81
2023/02/25 13:59:10;;;;;;;2.93;0.20;;;;;;;;;;5026094;28;20470;-81
2023/02/25 14:01:55;;;;;;;3.20;0.20;;;;;;;;;;5028193;28;20460;-84
2023/02/25 14:04:43;;;;;;;3.10;0.33;;;;;;;;;;5016001;28;20440;-83
2023/02/25 14:07:19;;;;;;;2.97;0.73;;;;;;;;;;5016291;28;20413;-80
2023/02/25 14:09:49;;;;;;;0.90;0.43;;;;;;;;;;5007600;28;20437;-83
2023/02/25 14:12:33;;;;;;;1.60;0.40;;;;;;;;;;5010495;28;20441;-80
2023/02/25 14:15:17;;;;;;;1.27;0.30;;;;;;;;;;5026889;28;20430;-83
2023/02/25 14:17:43;;;;;;;3.17;0.30;;;;;;;;;;5015465;28;20425;-84
2023/02/25 14:20:36;;;;;;;3.50;0.40;;;;;;;;;;5016171;28;20897;-80
2023/02/25 14:23:22;;;;;;;1.77;0.50;;;;;;;;;;5015711;28;20474;-84
2023/02/25 14:26:07;;;;;;;2.60;0.23;;;;;;;;;;5016674;28;20871;-84
2023/02/25 14:28:35;;;;;;;3.00;0.60;;;;;;;;;;5015662;28;20408;-84
2023/02/25 14:31:25;;;;;;;3.87;0.50;;;;;;;;;;5013973;28;20674;-83
2023/02/25 14:33:50;;;;;;;0.87;0.20;;;;;;;;;;4996854;28;20482;-84
2023/02/25 14:36:28;;;;;;;3.13;0.43;;;;;;;;;;5015023;28;20472;-84
2023/02/25 14:38:54;;;;;;;2.70;0.80;;;;;;;;;;4975837;28;20548;-85
2023/02/25 14:41:20;;;;;;;1.47;0.20;;;;;;;;;;5015247;28;20426;-84
2023/02/25 14:43:48;;;;;;;3.80;0.50;;;;;;;;;;5015751;28;20265;-82
2023/02/25 14:46:39;;;;;;;2.00;0.60;;;;;;;;;;5014577;28;20427;-83
2023/02/25 14:49:31;;;;;;;0.80;0.40;;;;;;;;;;5007356;28;20890;-81
2023/02/25 14:52:03;;;;;;;2.47;0.50;;;;;;;;;;5019376;28;20430;-84
2023/02/25 14:54:57;;;;;;;4.13;0.30;;;;;;;;;;4994974;28;20505;-84
2023/02/25 14:57:35;;;;;;;1.53;0.57;;;;;;;;;;4996088;28;20413;-83
2023/02/25 15:00:22;;;;;;;1.10;0.40;;;;;;;;;;5007420;28;20432;-84